createdAt,value
2018-09-27T00:00:34.523Z,76.70
2018-09-27T00:03:02.203Z,74.70
2018-09-27T00:05:29.827Z,73.30
2018-09-27T00:07:57.416Z,72.90
2018-09-27T00:10:25.113Z,72.50
2018-09-27T00:12:52.727Z,73.40
2018-09-27T00:15:20.367Z,74.40
2018-09-27T00:17:48.010Z,74.90
2018-09-27T00:20:15.656Z,74.70
2018-09-27T00:22:43.370Z,74.50
2018-09-27T00:25:11.015Z,74.00
2018-09-27T00:27:38.654Z,74.20
2018-09-27T00:30:06.347Z,75.50
2018-09-27T00:32:34.027Z,76.70
2018-09-27T00:35:01.735Z,78.70
2018-09-27T00:37:29.359Z,79.50
2018-09-27T00:39:56.926Z,80.70
2018-09-27T00:42:24.582Z,82.50
2018-09-27T00:44:52.243Z,83.70
2018-09-27T00:47:19.866Z,84.30
2018-09-27T00:49:47.515Z,84.80
2018-09-27T00:52:15.178Z,83.80
2018-09-27T00:54:43.050Z,84.10
2018-09-27T00:57:10.818Z,82.90
2018-09-27T00:59:38.416Z,84.40
2018-09-27T01:02:06.323Z,84.30
2018-09-27T01:04:33.992Z,84.70
2018-09-27T01:07:01.643Z,87.30
2018-09-27T01:09:29.243Z,88.20
2018-09-27T01:11:56.847Z,88.20
2018-09-27T01:14:24.547Z,88.90
2018-09-27T01:16:52.129Z,88.00
2018-09-27T01:19:19.793Z,88.10
2018-09-27T01:21:47.414Z,88.90
2018-09-27T01:24:15.067Z,87.90
2018-09-27T01:26:42.678Z,87.20
2018-09-27T01:29:10.358Z,87.10
2018-09-27T01:31:37.970Z,86.60
2018-09-27T01:34:05.699Z,87.50
2018-09-27T01:36:33.381Z,85.70
2018-09-27T01:39:01.027Z,85.10
2018-09-27T01:41:28.684Z,85.10
2018-09-27T01:43:56.244Z,84.10
2018-09-27T01:46:23.899Z,83.80
2018-09-27T01:48:51.576Z,84.00
2018-09-27T01:51:19.224Z,84.00
2018-09-27T01:53:46.950Z,84.40
2018-09-27T01:56:14.627Z,83.90
2018-09-27T01:58:42.307Z,84.30
2018-09-27T02:01:09.948Z,85.10
2018-09-27T02:03:37.701Z,84.20
2018-09-27T02:06:05.439Z,84.10
2018-09-27T02:08:33.192Z,82.80
2018-09-27T02:11:00.814Z,82.60
2018-09-27T02:13:28.494Z,83.90
2018-09-27T02:15:56.108Z,83.50
2018-09-27T02:18:23.790Z,84.40
2018-09-27T02:20:51.437Z,85.10
2018-09-27T02:23:19.098Z,84.70
2018-09-27T02:25:46.675Z,85.20
2018-09-27T02:28:14.386Z,85.90
2018-09-27T02:30:42.047Z,86.20
2018-09-27T02:33:11.636Z,86.10
2018-09-27T02:35:42.187Z,86.70
2018-09-27T02:38:09.807Z,86.10
2018-09-27T02:40:37.492Z,87.20
2018-09-27T02:43:05.075Z,86.60
2018-09-27T02:45:32.746Z,86.60
2018-09-27T02:48:00.454Z,86.90
2018-09-27T02:50:28.070Z,86.80
2018-09-27T02:52:55.739Z,87.00
2018-09-27T02:55:23.439Z,88.30
2018-09-27T02:57:51.051Z,88.50
2018-09-27T03:00:18.727Z,88.30
2018-09-27T03:02:46.367Z,88.80
2018-09-27T03:05:13.998Z,88.80
2018-09-27T03:07:41.604Z,89.80
2018-09-27T03:10:09.315Z,88.40
2018-09-27T03:12:36.951Z,89.40
2018-09-27T03:15:04.770Z,89.60
2018-09-27T03:17:32.436Z,89.80
2018-09-27T03:20:00.044Z,90.00
2018-09-27T03:22:27.670Z,90.10
2018-09-27T03:24:55.315Z,90.30
2018-09-27T03:27:22.988Z,90.30
2018-09-27T03:29:50.634Z,90.10
2018-09-27T03:32:18.313Z,90.70
2018-09-27T03:34:45.976Z,91.10
2018-09-27T03:37:13.602Z,91.10
2018-09-27T03:39:41.259Z,90.80
2018-09-27T03:42:08.887Z,91.70
2018-09-27T03:44:36.562Z,91.20
2018-09-27T03:47:04.232Z,91.30
2018-09-27T03:49:32.023Z,91.50
2018-09-27T03:51:59.610Z,91.00
2018-09-27T03:54:27.302Z,90.90
2018-09-27T03:56:54.940Z,90.80
2018-09-27T03:59:22.615Z,90.90
2018-09-27T04:01:50.226Z,90.90
2018-09-27T04:04:17.879Z,90.50
2018-09-27T04:06:45.503Z,90.40
2018-09-27T04:09:13.135Z,90.10
2018-09-27T04:11:40.799Z,90.50
2018-09-27T04:14:08.893Z,90.10
2018-09-27T04:16:36.579Z,89.50
2018-09-27T04:19:04.271Z,89.80
2018-09-27T04:21:32.083Z,90.30
2018-09-27T04:23:59.730Z,90.10
2018-09-27T04:26:27.293Z,89.60
2018-09-27T04:28:54.903Z,89.40
2018-09-27T04:31:22.555Z,88.80
2018-09-27T04:33:50.258Z,89.00
2018-09-27T04:36:17.965Z,89.20
2018-09-27T04:38:45.563Z,89.40
2018-09-27T04:41:13.243Z,88.60
2018-09-27T04:43:40.894Z,88.70
2018-09-27T04:46:08.795Z,88.30
2018-09-27T04:48:36.438Z,89.50
2018-09-27T04:51:04.060Z,90.30
2018-09-27T04:53:34.609Z,90.70
2018-09-27T04:56:02.295Z,90.30
2018-09-27T04:58:29.931Z,90.20
2018-09-27T05:00:57.625Z,90.30
2018-09-27T05:03:25.268Z,90.40
2018-09-27T05:05:53.217Z,90.40
2018-09-27T05:08:20.919Z,90.50
2018-09-27T05:10:48.545Z,89.90
2018-09-27T05:13:16.149Z,90.60
2018-09-27T05:15:43.850Z,91.40
2018-09-27T05:18:11.481Z,92.00
2018-09-27T05:20:39.160Z,91.80
2018-09-27T05:23:06.811Z,91.90
2018-09-27T05:25:34.460Z,91.70
2018-09-27T05:28:02.166Z,91.50
2018-09-27T05:30:29.849Z,91.50
2018-09-27T05:32:58.551Z,90.90
2018-09-27T05:35:26.296Z,90.40
2018-09-27T05:37:53.964Z,90.10
2018-09-27T05:40:21.605Z,89.90
2018-09-27T05:42:49.239Z,90.30
2018-09-27T05:45:16.939Z,90.40
2018-09-27T05:47:44.615Z,90.50
2018-09-27T05:50:12.390Z,90.40
2018-09-27T05:52:40.089Z,90.60
2018-09-27T05:55:07.788Z,90.70
2018-09-27T05:57:35.547Z,90.80
2018-09-27T06:00:03.507Z,91.00
2018-09-27T06:02:31.178Z,91.20
2018-09-27T06:04:58.778Z,91.50
2018-09-27T06:07:26.473Z,91.60
2018-09-27T06:09:54.143Z,91.60
2018-09-27T06:12:21.840Z,91.70
2018-09-27T06:14:49.507Z,91.80
2018-09-27T06:17:17.192Z,91.90
2018-09-27T06:19:44.953Z,92.10
2018-09-27T06:22:12.599Z,92.00
2018-09-27T06:24:40.243Z,91.90
2018-09-27T06:27:07.866Z,91.90
2018-09-27T06:29:35.643Z,91.70
2018-09-27T06:32:03.424Z,91.60
2018-09-27T06:34:31.014Z,91.40
2018-09-27T06:36:58.746Z,91.10
2018-09-27T06:39:26.383Z,90.40
2018-09-27T06:41:54.038Z,90.20
2018-09-27T06:44:21.679Z,90.30
2018-09-27T06:46:49.343Z,89.60
2018-09-27T06:49:17.089Z,90.00
2018-09-27T06:51:44.718Z,90.20
2018-09-27T06:54:12.396Z,89.80
2018-09-27T06:56:40.073Z,89.50
2018-09-27T06:59:07.695Z,90.00
2018-09-27T07:01:35.687Z,89.60
2018-09-27T07:04:03.665Z,89.30
2018-09-27T07:06:31.811Z,88.60
2018-09-27T07:08:59.635Z,87.40
2018-09-27T07:11:27.316Z,79.60
2018-09-27T07:13:54.966Z,70.40
2018-09-27T07:16:22.771Z,60.90
2018-09-27T07:18:50.525Z,57.90
2018-09-27T07:21:18.143Z,53.70
2018-09-27T07:23:45.875Z,51.00
2018-09-27T07:26:13.534Z,45.90
2018-09-27T07:28:41.223Z,42.40
2018-09-27T07:31:08.935Z,42.50
2018-09-27T07:33:36.767Z,39.00
2018-09-27T07:36:04.869Z,38.50
2018-09-27T07:38:32.596Z,35.90
2018-09-27T07:41:00.183Z,36.50
2018-09-27T07:43:27.828Z,35.70
2018-09-27T07:45:55.990Z,37.40
2018-09-27T07:48:23.796Z,37.30
2018-09-27T07:50:51.461Z,34.80
2018-09-27T07:53:19.159Z,32.30
2018-09-27T07:55:46.897Z,30.70
2018-09-27T07:58:14.573Z,30.90
2018-09-27T08:00:42.235Z,28.50
2018-09-27T08:03:09.947Z,27.20
2018-09-27T08:05:37.934Z,27.60
2018-09-27T08:08:06.051Z,27.10
2018-09-27T08:10:33.769Z,26.90
2018-09-27T08:13:01.345Z,27.60
2018-09-27T08:15:29.035Z,27.40
2018-09-27T08:17:56.655Z,27.80
2018-09-27T08:20:24.389Z,27.30
2018-09-27T08:22:52.097Z,26.60
2018-09-27T08:25:19.811Z,26.00
2018-09-27T08:27:47.509Z,25.70
2018-09-27T08:30:15.146Z,26.50
2018-09-27T08:32:42.855Z,26.00
2018-09-27T08:35:10.551Z,26.00
2018-09-27T08:37:38.134Z,25.60
2018-09-27T08:40:05.902Z,27.30
2018-09-27T08:42:33.666Z,27.10
2018-09-27T08:45:01.644Z,27.30
2018-09-27T08:47:29.079Z,27.40
2018-09-27T08:49:56.720Z,27.10
2018-09-27T08:52:24.467Z,26.50
2018-09-27T08:54:52.180Z,27.40
2018-09-27T08:57:19.876Z,27.80
2018-09-27T08:59:47.541Z,28.00
2018-09-27T09:02:15.251Z,28.30
2018-09-27T09:04:42.962Z,27.70
2018-09-27T09:07:10.626Z,30.20
2018-09-27T09:09:38.312Z,32.10
2018-09-27T09:12:06.056Z,32.90
2018-09-27T09:14:33.780Z,32.60
2018-09-27T09:17:01.389Z,32.60
2018-09-27T09:19:29.147Z,31.90
2018-09-27T09:21:56.704Z,30.90
2018-09-27T09:24:24.494Z,32.80
2018-09-27T09:26:52.099Z,34.70
2018-09-27T09:29:19.750Z,33.50
2018-09-27T09:31:47.411Z,32.20
2018-09-27T09:34:15.089Z,31.50
2018-09-27T09:36:42.819Z,30.80
2018-09-27T09:39:10.554Z,30.20
2018-09-27T09:41:38.364Z,31.50
2018-09-27T09:44:06.145Z,31.90
2018-09-27T09:46:33.893Z,31.50
2018-09-27T09:49:01.548Z,31.10
2018-09-27T09:51:29.220Z,31.40
2018-09-27T09:53:56.848Z,31.30
2018-09-27T09:56:24.621Z,31.60
2018-09-27T09:58:52.326Z,31.20
2018-09-27T10:01:19.986Z,31.40
2018-09-27T10:03:47.628Z,31.10
2018-09-27T10:06:15.302Z,31.50
2018-09-27T10:08:43.050Z,31.00
2018-09-27T10:11:10.678Z,31.00
2018-09-27T10:13:38.339Z,30.20
2018-09-27T10:16:05.923Z,30.00
2018-09-27T10:18:33.730Z,30.50
2018-09-27T10:21:01.359Z,31.70
2018-09-27T10:23:29.111Z,32.20
2018-09-27T10:30:57.156Z,33.20
2018-09-27T10:33:24.878Z,35.00
2018-09-27T10:35:52.723Z,35.40
2018-09-27T10:38:20.374Z,34.40
2018-09-27T10:40:48.011Z,34.70
2018-09-27T10:43:15.719Z,33.80
2018-09-27T10:45:43.392Z,33.70
2018-09-27T10:48:11.003Z,32.50
2018-09-27T10:50:38.699Z,31.90
2018-09-27T10:53:06.770Z,33.10
2018-09-27T10:55:34.473Z,34.60
2018-09-27T10:58:02.150Z,34.90
2018-09-27T11:00:29.842Z,35.60
2018-09-27T11:02:57.562Z,35.50
2018-09-27T11:05:25.231Z,34.80
2018-09-27T11:07:52.939Z,34.40
2018-09-27T11:10:20.627Z,34.10
2018-09-27T11:12:48.274Z,33.80
2018-09-27T11:15:15.959Z,34.00
2018-09-27T11:17:43.639Z,34.50
2018-09-27T11:20:11.304Z,35.00
2018-09-27T11:22:39.091Z,35.50
2018-09-27T11:25:06.772Z,35.40
2018-09-27T11:27:34.447Z,36.10
2018-09-27T11:30:07.567Z,35.60
2018-09-27T11:32:40.863Z,34.70
2018-09-27T11:35:08.559Z,34.60
2018-09-27T11:37:36.832Z,34.20
2018-09-27T11:40:04.775Z,34.90
2018-09-27T11:42:32.446Z,34.90
2018-09-27T11:45:00.007Z,34.80
2018-09-27T11:47:27.670Z,34.80
2018-09-27T11:49:55.449Z,35.80
2018-09-27T11:52:22.998Z,35.10
2018-09-27T11:54:50.649Z,34.10
2018-09-27T11:57:18.335Z,33.80
2018-09-27T11:59:45.947Z,32.90
2018-09-27T12:02:13.534Z,33.50
2018-09-27T12:04:41.166Z,33.10
2018-09-27T12:07:08.803Z,33.80
2018-09-27T12:09:36.499Z,35.00
2018-09-27T12:12:04.267Z,34.80
2018-09-27T12:14:31.920Z,33.90
2018-09-27T12:16:59.492Z,32.00
2018-09-27T12:19:27.148Z,32.20
2018-09-27T12:21:54.854Z,32.40
2018-09-27T12:24:22.471Z,32.10
2018-09-27T12:26:50.063Z,31.40
2018-09-27T12:29:17.659Z,31.60
2018-09-27T12:31:45.314Z,32.40
2018-09-27T12:34:13.503Z,32.30
2018-09-27T12:36:41.261Z,33.10
2018-09-27T12:39:10.234Z,32.80
2018-09-27T12:41:37.948Z,32.90
2018-09-27T12:44:05.645Z,33.30
2018-09-27T12:46:33.325Z,33.70
2018-09-27T12:49:01.016Z,33.10
2018-09-27T12:51:28.782Z,34.20
2018-09-27T12:53:56.372Z,34.50
2018-09-27T12:56:23.958Z,34.80
2018-09-27T12:58:51.615Z,34.80
2018-09-27T13:01:19.219Z,34.40
2018-09-27T13:03:46.978Z,33.90
2018-09-27T13:06:14.756Z,34.50
2018-09-27T13:08:42.544Z,35.10
2018-09-27T13:11:10.175Z,35.60
2018-09-27T13:13:37.886Z,35.60
2018-09-27T13:16:05.626Z,35.90
2018-09-27T13:18:33.364Z,35.70
2018-09-27T13:21:01.181Z,35.00
2018-09-27T13:23:29.023Z,34.80
2018-09-27T13:25:57.022Z,34.80
2018-09-27T13:28:24.864Z,35.10
2018-09-27T13:30:52.491Z,35.20
2018-09-27T13:33:20.275Z,35.20
2018-09-27T13:35:47.965Z,35.40
2018-09-27T13:38:15.655Z,35.60
2018-09-27T13:40:43.359Z,35.00
2018-09-27T13:43:11.164Z,35.40
2018-09-27T13:45:38.730Z,35.80
2018-09-27T13:48:06.400Z,36.00
2018-09-27T13:50:34.017Z,36.20
2018-09-27T13:53:01.901Z,36.30
2018-09-27T13:55:29.612Z,36.80
2018-09-27T13:57:57.251Z,36.90
2018-09-27T14:00:24.894Z,36.50
2018-09-27T14:02:52.544Z,36.70
2018-09-27T14:05:20.242Z,36.70
2018-09-27T14:07:47.898Z,36.50
2018-09-27T14:10:15.558Z,36.20
2018-09-27T14:12:43.254Z,36.70
2018-09-27T14:15:10.857Z,36.50
2018-09-27T14:17:38.576Z,36.10
2018-09-27T14:20:07.358Z,36.20
2018-09-27T14:22:35.011Z,36.90
2018-09-27T14:25:02.696Z,37.20
2018-09-27T14:27:30.354Z,36.90
2018-09-27T14:29:58.115Z,37.00
2018-09-27T14:32:25.862Z,37.00
2018-09-27T14:34:53.467Z,36.80
2018-09-27T14:37:21.078Z,37.00
2018-09-27T14:39:48.719Z,36.80
2018-09-27T14:42:17.827Z,36.70
2018-09-27T14:44:45.763Z,36.80
2018-09-27T14:47:13.669Z,37.10
2018-09-27T14:49:41.383Z,37.30
2018-09-27T14:52:08.940Z,37.20
2018-09-27T14:54:37.296Z,37.10
2018-09-27T14:57:04.822Z,36.70
2018-09-27T14:59:32.521Z,36.60
2018-09-27T15:02:00.301Z,37.00
2018-09-27T15:04:27.964Z,37.00
2018-09-27T15:06:55.655Z,37.10
2018-09-27T15:09:23.341Z,37.30
2018-09-27T15:11:50.942Z,37.30
2018-09-27T15:14:18.790Z,37.90
2018-09-27T15:16:46.462Z,37.90
2018-09-27T15:19:14.120Z,37.60
2018-09-27T15:21:41.947Z,37.60
2018-09-27T15:24:09.678Z,37.70
2018-09-27T15:26:37.382Z,37.80
2018-09-27T15:29:05.106Z,37.70
2018-09-27T15:31:33.059Z,37.90
2018-09-27T15:34:00.743Z,38.00
2018-09-27T15:36:28.619Z,38.10
2018-09-27T15:38:56.224Z,38.00
2018-09-27T15:41:23.896Z,37.90
2018-09-27T15:43:51.709Z,38.00
2018-09-27T15:46:19.419Z,38.40
2018-09-27T15:48:47.978Z,38.50
2018-09-27T15:51:15.665Z,39.20
2018-09-27T15:53:43.311Z,38.80
2018-09-27T15:56:11.122Z,38.30
2018-09-27T15:58:38.856Z,37.90
2018-09-27T16:01:06.522Z,37.90
2018-09-27T16:03:34.249Z,38.10
2018-09-27T16:06:02.167Z,38.00
2018-09-27T16:08:29.930Z,38.30
2018-09-27T16:10:57.587Z,38.20
2018-09-27T16:13:25.279Z,38.30
2018-09-27T16:15:52.923Z,38.30
2018-09-27T16:18:20.596Z,38.60
2018-09-27T16:20:48.183Z,38.50
2018-09-27T16:23:15.826Z,38.80
2018-09-27T16:25:43.480Z,39.70
2018-09-27T16:28:11.144Z,39.10
2018-09-27T16:30:38.743Z,39.20
2018-09-27T16:33:06.385Z,39.40
2018-09-27T16:35:34.205Z,39.80
2018-09-27T16:38:01.815Z,40.00
2018-09-27T16:40:29.607Z,40.00
2018-09-27T16:42:57.155Z,40.10
2018-09-27T16:45:24.846Z,40.70
2018-09-27T16:47:52.558Z,40.20
2018-09-27T16:50:20.206Z,40.60
2018-09-27T16:52:47.886Z,41.00
2018-09-27T16:55:15.511Z,41.60
2018-09-27T16:57:43.707Z,42.10
2018-09-27T17:00:11.388Z,42.00
2018-09-27T17:02:39.128Z,42.30
2018-09-27T17:05:06.928Z,42.20
2018-09-27T17:07:34.631Z,42.30
2018-09-27T17:10:07.963Z,42.30
2018-09-27T17:12:35.635Z,42.50
2018-09-27T17:15:03.447Z,42.80
2018-09-27T17:17:31.180Z,42.80
2018-09-27T17:19:59.437Z,43.30
2018-09-27T17:22:27.153Z,43.60
2018-09-27T17:24:54.830Z,43.70
2018-09-27T17:27:22.618Z,44.40
2018-09-27T17:29:50.413Z,44.70
2018-09-27T17:32:18.151Z,45.10
2018-09-27T17:34:45.858Z,45.50
2018-09-27T17:37:13.570Z,45.50
2018-09-27T17:39:41.251Z,45.80
2018-09-27T17:42:08.894Z,45.80
2018-09-27T17:44:36.602Z,46.10
2018-09-27T17:47:04.528Z,47.40
2018-09-27T17:49:32.125Z,47.40
2018-09-27T17:51:59.783Z,48.30
2018-09-27T17:54:27.566Z,48.70
2018-09-27T17:56:55.255Z,50.00
2018-09-27T17:59:22.958Z,51.30
2018-09-27T18:01:50.545Z,52.40
2018-09-27T18:04:18.320Z,52.80
2018-09-27T18:06:46.242Z,52.60
2018-09-27T18:09:13.951Z,52.20
2018-09-27T18:11:42.035Z,52.40
2018-09-27T18:14:10.059Z,52.80
2018-09-27T18:16:37.704Z,52.70
2018-09-27T18:19:05.371Z,53.20
2018-09-27T18:21:33.079Z,53.00
2018-09-27T18:24:02.025Z,52.90
2018-09-27T18:26:30.235Z,52.90
2018-09-27T18:28:57.967Z,53.30
2018-09-27T18:31:25.684Z,53.50
2018-09-27T18:33:53.299Z,53.40
2018-09-27T18:36:21.021Z,53.70
2018-09-27T18:38:48.706Z,55.40
2018-09-27T18:41:16.282Z,56.10
2018-09-27T18:43:43.918Z,56.50
2018-09-27T18:46:11.564Z,56.30
2018-09-27T18:48:39.316Z,55.90
2018-09-27T18:51:07.153Z,56.60
2018-09-27T18:53:34.822Z,57.60
2018-09-27T18:56:02.513Z,58.00
2018-09-27T18:58:30.179Z,57.70
2018-09-27T19:00:58.050Z,57.80
2018-09-27T19:03:25.772Z,57.50
2018-09-27T19:05:53.507Z,58.20
2018-09-27T19:08:21.411Z,57.70
2018-09-27T19:10:49.176Z,57.20
2018-09-27T19:13:16.825Z,57.10
2018-09-27T19:15:44.546Z,56.50
2018-09-27T19:18:12.279Z,56.40
2018-09-27T19:20:40.010Z,56.80
2018-09-27T19:23:07.716Z,57.30
2018-09-27T19:25:35.423Z,57.90
2018-09-27T19:28:03.159Z,57.70
2018-09-27T19:30:30.994Z,57.80
2018-09-27T19:32:58.688Z,57.50
2018-09-27T19:35:26.635Z,58.20
2018-09-27T19:37:54.562Z,58.90
2018-09-27T19:40:22.282Z,59.50
2018-09-27T19:42:50.055Z,60.10
2018-09-27T19:45:18.107Z,60.70
2018-09-27T19:47:46.204Z,60.50
2018-09-27T19:50:13.884Z,59.90
2018-09-27T19:52:41.519Z,60.80
2018-09-27T19:55:09.396Z,62.00
2018-09-27T19:57:37.264Z,62.30
2018-09-27T20:00:05.450Z,62.80
2018-09-27T20:02:33.215Z,62.70
2018-09-27T20:05:00.904Z,60.20
2018-09-27T20:07:28.580Z,59.70
2018-09-27T20:09:56.294Z,60.20
2018-09-27T20:12:24.089Z,60.90
2018-09-27T20:14:51.806Z,62.40
2018-09-27T20:17:19.430Z,62.80
2018-09-27T20:19:47.141Z,64.20
2018-09-27T20:22:14.837Z,64.90
2018-09-27T20:24:42.429Z,65.30
2018-09-27T20:27:10.658Z,65.30
2018-09-27T20:29:38.596Z,65.50
2018-09-27T20:32:06.384Z,66.00
2018-09-27T20:34:34.153Z,65.70
2018-09-27T20:37:01.815Z,65.60
2018-09-27T20:39:29.455Z,65.50
2018-09-27T20:41:57.222Z,65.00
2018-09-27T20:44:24.898Z,65.40
2018-09-27T20:46:52.683Z,64.80
2018-09-27T20:49:20.420Z,64.80
2018-09-27T20:51:48.163Z,65.80
2018-09-27T20:54:15.864Z,66.40
2018-09-27T20:56:43.563Z,67.10
2018-09-27T20:59:11.260Z,68.10
2018-09-27T21:01:39.004Z,68.50
2018-09-27T21:04:06.711Z,69.20
2018-09-27T21:06:34.407Z,69.40
2018-09-27T21:09:02.493Z,69.90
2018-09-27T21:11:30.279Z,70.20
2018-09-27T21:13:57.990Z,70.10
2018-09-27T21:16:25.690Z,70.00
2018-09-27T21:18:53.471Z,70.80
2018-09-27T21:21:21.219Z,70.70
2018-09-27T21:23:48.930Z,71.10
2018-09-27T21:26:16.636Z,71.80
2018-09-27T21:28:44.409Z,71.90
2018-09-27T21:31:12.133Z,72.60
2018-09-27T21:33:39.729Z,72.70
2018-09-27T21:36:07.793Z,73.30
2018-09-27T21:38:35.547Z,73.40
2018-09-27T21:41:03.323Z,73.60
2018-09-27T21:43:31.105Z,73.60
2018-09-27T21:45:58.805Z,74.20
2018-09-27T21:48:26.869Z,73.40
2018-09-27T21:50:54.643Z,73.20
2018-09-27T21:53:22.295Z,72.90
2018-09-27T21:55:50.059Z,72.30
2018-09-27T21:58:17.735Z,73.90
2018-09-27T22:00:45.773Z,74.50
2018-09-27T22:03:13.574Z,74.70
2018-09-27T22:05:41.307Z,74.90
2018-09-27T22:08:08.982Z,74.80
2018-09-27T22:10:36.894Z,75.20
2018-09-27T22:13:04.619Z,74.60
2018-09-27T22:15:32.315Z,73.90
2018-09-27T22:17:59.979Z,71.90
2018-09-27T22:20:27.656Z,71.50
2018-09-27T22:22:55.318Z,70.50
2018-09-27T22:25:22.874Z,70.60
2018-09-27T22:27:50.560Z,70.30
2018-09-27T22:30:18.218Z,70.40
2018-09-27T22:32:45.895Z,70.60
2018-09-27T22:35:13.512Z,70.30
2018-09-27T22:37:41.146Z,70.80
2018-09-27T22:40:08.752Z,71.00
2018-09-27T22:42:36.491Z,71.30
2018-09-27T22:45:04.762Z,71.00
2018-09-27T22:47:32.420Z,70.60
2018-09-27T22:50:00.009Z,70.70
2018-09-27T22:52:27.667Z,71.10
2018-09-27T22:54:55.415Z,70.90
2018-09-27T22:57:23.126Z,71.80
2018-09-27T22:59:50.887Z,71.60
2018-09-27T23:02:18.931Z,72.20
2018-09-27T23:04:46.826Z,72.50
2018-09-27T23:07:14.552Z,73.00
2018-09-27T23:09:42.236Z,73.00
2018-09-27T23:12:09.918Z,73.20
2018-09-27T23:14:37.527Z,73.60
2018-09-27T23:17:05.229Z,74.20
2018-09-27T23:19:32.898Z,74.60
2018-09-27T23:22:00.563Z,74.90
2018-09-27T23:24:28.182Z,75.20
2018-09-27T23:26:55.819Z,76.40
2018-09-27T23:29:23.423Z,76.50
2018-09-27T23:31:51.074Z,76.90
2018-09-27T23:34:18.772Z,77.50
2018-09-27T23:36:46.434Z,77.90
2018-09-27T23:39:14.080Z,78.40
2018-09-27T23:41:41.736Z,78.60
2018-09-27T23:44:09.557Z,78.80
2018-09-27T23:46:37.259Z,79.40
2018-09-27T23:49:04.987Z,78.90
2018-09-27T23:51:32.673Z,79.60
2018-09-27T23:54:00.392Z,80.10
2018-09-27T23:56:28.142Z,80.60
2018-09-27T23:58:55.795Z,81.30
